sensor_id;sensor_type;location;lat;lon;timestamp;P1;durP1;ratioP1;P2;durP2;ratioP2
30000;SDS011;16845;48.670;9.000;2023-06-22T00:00:06;12.70;;;10.20;;
30000;SDS011;16845;48.670;9.000;2023-06-22T00:02:33;15.48;;;10.10;;
30000;SDS011;16845;48.670;9.000;2023-06-22T00:05:00;13.33;;;11.17;;
30000;SDS011;16845;48.670;9.000;2023-06-22T00:07:28;14.10;;;10.60;;
30000;SDS011;16845;48.670;9.000;2023-06-22T00:09:54;13.32;;;10.63;;
30000;SDS011;16845;48.670;9.000;2023-06-22T00:12:21;13.10;;;6.90;;
30000;SDS011;16845;48.670;9.000;2023-06-22T00:14:47;13.10;;;10.43;;
30000;SDS011;16845;48.670;9.000;2023-06-22T00:17:14;16.57;;;11.63;;
30000;SDS011;16845;48.670;9.000;2023-06-22T00:19:40;14.48;;;10.52;;
30000;SDS011;16845;48.670;9.000;2023-06-22T00:22:07;12.17;;;9.37;;
30000;SDS011;16845;48.670;9.000;2023-06-22T00:24:35;15.77;;;10.13;;
30000;SDS011;16845;48.670;9.000;2023-06-22T00:27:01;12.57;;;10.60;;
30000;SDS011;16845;48.670;9.000;2023-06-22T00:29:28;13.77;;;10.35;;
30000;SDS011;16845;48.670;9.000;2023-06-22T00:31:54;15.67;;;10.57;;
30000;SDS011;16845;48.670;9.000;2023-06-22T00:34:21;16.20;;;11.07;;
30000;SDS011;16845;48.670;9.000;2023-06-22T00:36:48;15.35;;;10.55;;
30000;SDS011;16845;48.670;9.000;2023-06-22T00:39:14;8.35;;;6.72;;
30000;SDS011;16845;48.670;9.000;2023-06-22T00:41:42;12.10;;;10.37;;
30000;SDS011;16845;48.670;9.000;2023-06-22T00:44:09;14.65;;;9.73;;
30000;SDS011;16845;48.670;9.000;2023-06-22T00:46:35;15.80;;;11.40;;
30000;SDS011;16845;48.670;9.000;2023-06-22T00:49:02;15.90;;;11.00;;
30000;SDS011;16845;48.670;9.000;2023-06-22T00:51:28;15.30;;;9.70;;
30000;SDS011;16845;48.670;9.000;2023-06-22T00:53:55;15.85;;;10.25;;
30000;SDS011;16845;48.670;9.000;2023-06-22T00:56:22;14.85;;;10.00;;
30000;SDS011;16845;48.670;9.000;2023-06-22T00:58:51;16.10;;;10.20;;
30000;SDS011;16845;48.670;9.000;2023-06-22T01:01:17;17.05;;;11.98;;
30000;SDS011;16845;48.670;9.000;2023-06-22T01:03:44;12.33;;;10.40;;
30000;SDS011;16845;48.670;9.000;2023-06-22T01:06:13;15.07;;;10.75;;
30000;SDS011;16845;48.670;9.000;2023-06-22T01:08:46;18.15;;;10.50;;
30000;SDS011;16845;48.670;9.000;2023-06-22T01:11:18;19.27;;;10.77;;
30000;SDS011;16845;48.670;9.000;2023-06-22T01:13:51;16.85;;;10.60;;
30000;SDS011;16845;48.670;9.000;2023-06-22T01:16:25;15.25;;;10.43;;
30000;SDS011;16845;48.670;9.000;2023-06-22T01:18:54;14.98;;;9.63;;
30000;SDS011;16845;48.670;9.000;2023-06-22T01:21:23;13.25;;;10.30;;
30000;SDS011;16845;48.670;9.000;2023-06-22T01:23:59;19.92;;;10.68;;
30000;SDS011;16845;48.670;9.000;2023-06-22T01:26:37;16.63;;;11.25;;
30000;SDS011;16845;48.670;9.000;2023-06-22T01:29:09;15.00;;;11.45;;
30000;SDS011;16845;48.670;9.000;2023-06-22T01:31:38;17.25;;;10.88;;
30000;SDS011;16845;48.670;9.000;2023-06-22T01:34:06;11.60;;;10.05;;
30000;SDS011;16845;48.670;9.000;2023-06-22T01:36:34;15.48;;;10.90;;
30000;SDS011;16845;48.670;9.000;2023-06-22T01:39:02;14.85;;;10.60;;
30000;SDS011;16845;48.670;9.000;2023-06-22T01:41:34;18.70;;;11.15;;
30000;SDS011;16845;48.670;9.000;2023-06-22T01:44:02;17.85;;;10.38;;
30000;SDS011;16845;48.670;9.000;2023-06-22T01:46:32;20.30;;;12.32;;
30000;SDS011;16845;48.670;9.000;2023-06-22T01:48:59;17.08;;;12.38;;
30000;SDS011;16845;48.670;9.000;2023-06-22T01:51:26;12.73;;;11.15;;
30000;SDS011;16845;48.670;9.000;2023-06-22T01:53:52;13.77;;;10.40;;
30000;SDS011;16845;48.670;9.000;2023-06-22T01:56:19;19.92;;;11.63;;
30000;SDS011;16845;48.670;9.000;2023-06-22T01:58:49;23.40;;;12.67;;
30000;SDS011;16845;48.670;9.000;2023-06-22T02:01:33;12.73;;;10.50;;
30000;SDS011;16845;48.670;9.000;2023-06-22T02:04:05;21.95;;;11.43;;
30000;SDS011;16845;48.670;9.000;2023-06-22T02:06:37;18.45;;;12.05;;
30000;SDS011;16845;48.670;9.000;2023-06-22T02:09:06;14.13;;;9.82;;
30000;SDS011;16845;48.670;9.000;2023-06-22T02:11:36;16.25;;;11.38;;
30000;SDS011;16845;48.670;9.000;2023-06-22T02:14:03;13.88;;;10.40;;
30000;SDS011;16845;48.670;9.000;2023-06-22T02:16:33;13.50;;;10.13;;
30000;SDS011;16845;48.670;9.000;2023-06-22T02:19:00;20.10;;;12.50;;
30000;SDS011;16845;48.670;9.000;2023-06-22T02:21:28;16.00;;;10.63;;
30000;SDS011;16845;48.670;9.000;2023-06-22T02:23:55;14.52;;;10.60;;
30000;SDS011;16845;48.670;9.000;2023-06-22T02:26:21;14.88;;;10.80;;
30000;SDS011;16845;48.670;9.000;2023-06-22T02:28:51;16.30;;;11.27;;
30000;SDS011;16845;48.670;9.000;2023-06-22T02:31:18;17.02;;;10.85;;
30000;SDS011;16845;48.670;9.000;2023-06-22T02:36:13;13.93;;;10.00;;
30000;SDS011;16845;48.670;9.000;2023-06-22T02:38:40;18.37;;;10.40;;
30000;SDS011;16845;48.670;9.000;2023-06-22T02:43:33;17.60;;;11.18;;
30000;SDS011;16845;48.670;9.000;2023-06-22T02:45:59;14.20;;;11.40;;
30000;SDS011;16845;48.670;9.000;2023-06-22T02:48:26;14.93;;;11.18;;
30000;SDS011;16845;48.670;9.000;2023-06-22T02:50:54;18.23;;;10.82;;
30000;SDS011;16845;48.670;9.000;2023-06-22T02:53:20;14.40;;;10.10;;
30000;SDS011;16845;48.670;9.000;2023-06-22T02:55:47;13.35;;;10.73;;
30000;SDS011;16845;48.670;9.000;2023-06-22T02:58:13;18.40;;;11.00;;
30000;SDS011;16845;48.670;9.000;2023-06-22T03:00:40;17.38;;;10.88;;
30000;SDS011;16845;48.670;9.000;2023-06-22T03:03:06;15.10;;;10.53;;
30000;SDS011;16845;48.670;9.000;2023-06-22T03:05:33;17.10;;;11.60;;
30000;SDS011;16845;48.670;9.000;2023-06-22T03:08:01;14.15;;;9.80;;
30000;SDS011;16845;48.670;9.000;2023-06-22T03:10:27;15.60;;;10.35;;
30000;SDS011;16845;48.670;9.000;2023-06-22T03:12:54;20.30;;;11.27;;
30000;SDS011;16845;48.670;9.000;2023-06-22T03:15:21;17.17;;;10.48;;
30000;SDS011;16845;48.670;9.000;2023-06-22T03:17:48;15.80;;;10.75;;
30000;SDS011;16845;48.670;9.000;2023-06-22T03:20:15;13.60;;;9.97;;
30000;SDS011;16845;48.670;9.000;2023-06-22T03:22:41;13.18;;;9.50;;
30000;SDS011;16845;48.670;9.000;2023-06-22T03:25:09;12.50;;;9.37;;
30000;SDS011;16845;48.670;9.000;2023-06-22T03:27:36;13.05;;;10.00;;
30000;SDS011;16845;48.670;9.000;2023-06-22T03:30:03;15.63;;;10.97;;
30000;SDS011;16845;48.670;9.000;2023-06-22T03:32:30;13.05;;;9.60;;
30000;SDS011;16845;48.670;9.000;2023-06-22T03:34:56;13.20;;;10.07;;
30000;SDS011;16845;48.670;9.000;2023-06-22T03:37:23;15.18;;;10.02;;
30000;SDS011;16845;48.670;9.000;2023-06-22T03:39:49;15.03;;;11.43;;
30000;SDS011;16845;48.670;9.000;2023-06-22T03:42:17;23.83;;;11.98;;
30000;SDS011;16845;48.670;9.000;2023-06-22T03:44:44;17.10;;;12.40;;
30000;SDS011;16845;48.670;9.000;2023-06-22T03:47:10;18.60;;;11.60;;
30000;SDS011;16845;48.670;9.000;2023-06-22T03:52:04;18.45;;;11.13;;
30000;SDS011;16845;48.670;9.000;2023-06-22T03:54:31;16.23;;;12.00;;
30000;SDS011;16845;48.670;9.000;2023-06-22T03:56:58;13.27;;;9.80;;
30000;SDS011;16845;48.670;9.000;2023-06-22T03:59:26;22.48;;;11.57;;
30000;SDS011;16845;48.670;9.000;2023-06-22T04:01:52;21.17;;;11.10;;
30000;SDS011;16845;48.670;9.000;2023-06-22T04:04:19;17.70;;;12.23;;
30000;SDS011;16845;48.670;9.000;2023-06-22T04:06:46;17.48;;;11.05;;
30000;SDS011;16845;48.670;9.000;2023-06-22T04:09:13;17.65;;;13.27;;
30000;SDS011;16845;48.670;9.000;2023-06-22T04:11:39;16.88;;;13.05;;
30000;SDS011;16845;48.670;9.000;2023-06-22T04:14:06;21.42;;;11.82;;
30000;SDS011;16845;48.670;9.000;2023-06-22T04:16:34;19.50;;;12.02;;
30000;SDS011;16845;48.670;9.000;2023-06-22T04:19:00;19.13;;;12.85;;
30000;SDS011;16845;48.670;9.000;2023-06-22T04:21:27;16.83;;;11.47;;
30000;SDS011;16845;48.670;9.000;2023-06-22T04:23:53;16.40;;;12.27;;
30000;SDS011;16845;48.670;9.000;2023-06-22T04:26:20;9.40;;;7.88;;
30000;SDS011;16845;48.670;9.000;2023-06-22T04:28:46;13.77;;;11.33;;
30000;SDS011;16845;48.670;9.000;2023-06-22T04:31:13;14.70;;;10.63;;
30000;SDS011;16845;48.670;9.000;2023-06-22T04:33:41;19.57;;;11.77;;
30000;SDS011;16845;48.670;9.000;2023-06-22T04:36:08;16.48;;;11.15;;
30000;SDS011;16845;48.670;9.000;2023-06-22T04:38:34;16.85;;;11.77;;
30000;SDS011;16845;48.670;9.000;2023-06-22T04:41:01;14.93;;;10.07;;
30000;SDS011;16845;48.670;9.000;2023-06-22T04:43:27;15.57;;;10.67;;
30000;SDS011;16845;48.670;9.000;2023-06-22T04:45:54;14.50;;;10.57;;
30000;SDS011;16845;48.670;9.000;2023-06-22T04:48:20;12.30;;;9.52;;
30000;SDS011;16845;48.670;9.000;2023-06-22T04:50:48;17.33;;;10.73;;
30000;SDS011;16845;48.670;9.000;2023-06-22T04:53:15;15.65;;;9.23;;
30000;SDS011;16845;48.670;9.000;2023-06-22T04:55:41;15.67;;;9.93;;
30000;SDS011;16845;48.670;9.000;2023-06-22T04:58:08;21.03;;;10.50;;
30000;SDS011;16845;48.670;9.000;2023-06-22T05:00:34;19.73;;;8.65;;
30000;SDS011;16845;48.670;9.000;2023-06-22T05:03:01;11.00;;;8.63;;
30000;SDS011;16845;48.670;9.000;2023-06-22T05:05:44;20.15;;;9.77;;
30000;SDS011;16845;48.670;9.000;2023-06-22T05:08:12;13.37;;;9.37;;
30000;SDS011;16845;48.670;9.000;2023-06-22T05:10:39;10.70;;;8.82;;
30000;SDS011;16845;48.670;9.000;2023-06-22T05:13:24;16.55;;;9.23;;
30000;SDS011;16845;48.670;9.000;2023-06-22T05:15:51;14.37;;;9.23;;
30000;SDS011;16845;48.670;9.000;2023-06-22T05:18:17;13.30;;;8.95;;
30000;SDS011;16845;48.670;9.000;2023-06-22T05:20:44;12.00;;;8.77;;
30000;SDS011;16845;48.670;9.000;2023-06-22T05:23:12;10.93;;;7.67;;
30000;SDS011;16845;48.670;9.000;2023-06-22T05:25:38;12.45;;;8.38;;
30000;SDS011;16845;48.670;9.000;2023-06-22T05:28:05;12.10;;;9.03;;
30000;SDS011;16845;48.670;9.000;2023-06-22T05:30:31;14.52;;;8.43;;
30000;SDS011;16845;48.670;9.000;2023-06-22T05:32:58;12.27;;;8.00;;
30000;SDS011;16845;48.670;9.000;2023-06-22T05:35:25;7.43;;;4.75;;
30000;SDS011;16845;48.670;9.000;2023-06-22T05:37:51;17.30;;;8.00;;
30000;SDS011;16845;48.670;9.000;2023-06-22T05:40:19;11.50;;;7.63;;
30000;SDS011;16845;48.670;9.000;2023-06-22T05:42:45;13.38;;;7.93;;
30000;SDS011;16845;48.670;9.000;2023-06-22T05:45:12;11.47;;;7.37;;
30000;SDS011;16845;48.670;9.000;2023-06-22T05:47:38;13.07;;;7.63;;
30000;SDS011;16845;48.670;9.000;2023-06-22T05:50:05;15.00;;;8.97;;
30000;SDS011;16845;48.670;9.000;2023-06-22T05:52:32;14.30;;;7.85;;
30000;SDS011;16845;48.670;9.000;2023-06-22T05:54:59;12.70;;;7.23;;
30000;SDS011;16845;48.670;9.000;2023-06-22T05:57:27;14.18;;;7.88;;
30000;SDS011;16845;48.670;9.000;2023-06-22T05:59:53;12.70;;;7.22;;
30000;SDS011;16845;48.670;9.000;2023-06-22T06:02:20;11.30;;;7.47;;
30000;SDS011;16845;48.670;9.000;2023-06-22T06:04:46;12.30;;;7.60;;
30000;SDS011;16845;48.670;9.000;2023-06-22T06:07:13;14.23;;;7.40;;
30000;SDS011;16845;48.670;9.000;2023-06-22T06:09:39;20.87;;;7.63;;
30000;SDS011;16845;48.670;9.000;2023-06-22T06:12:06;14.70;;;7.22;;
30000;SDS011;16845;48.670;9.000;2023-06-22T06:17:01;13.63;;;6.82;;
30000;SDS011;16845;48.670;9.000;2023-06-22T06:19:28;13.88;;;7.20;;
30000;SDS011;16845;48.670;9.000;2023-06-22T06:21:54;9.48;;;6.60;;
30000;SDS011;16845;48.670;9.000;2023-06-22T06:24:21;11.07;;;6.35;;
30000;SDS011;16845;48.670;9.000;2023-06-22T06:26:47;6.60;;;4.17;;
30000;SDS011;16845;48.670;9.000;2023-06-22T06:29:14;12.95;;;7.10;;
30000;SDS011;16845;48.670;9.000;2023-06-22T06:31:41;15.93;;;6.87;;
30000;SDS011;16845;48.670;9.000;2023-06-22T06:34:08;9.55;;;6.00;;
30000;SDS011;16845;48.670;9.000;2023-06-22T06:36:35;11.23;;;6.40;;
30000;SDS011;16845;48.670;9.000;2023-06-22T06:39:01;9.80;;;6.20;;
30000;SDS011;16845;48.670;9.000;2023-06-22T06:41:28;8.43;;;6.00;;
30000;SDS011;16845;48.670;9.000;2023-06-22T06:43:54;12.55;;;6.13;;
30000;SDS011;16845;48.670;9.000;2023-06-22T06:46:21;13.83;;;6.60;;
30000;SDS011;16845;48.670;9.000;2023-06-22T06:48:49;10.13;;;6.30;;
30000;SDS011;16845;48.670;9.000;2023-06-22T06:51:15;9.48;;;5.38;;
30000;SDS011;16845;48.670;9.000;2023-06-22T06:53:42;13.27;;;6.50;;
30000;SDS011;16845;48.670;9.000;2023-06-22T06:56:08;9.63;;;6.27;;
30000;SDS011;16845;48.670;9.000;2023-06-22T06:58:35;9.97;;;6.17;;
30000;SDS011;16845;48.670;9.000;2023-06-22T07:01:01;12.90;;;7.13;;
30000;SDS011;16845;48.670;9.000;2023-06-22T07:03:28;9.23;;;5.97;;
30000;SDS011;16845;48.670;9.000;2023-06-22T07:05:56;13.98;;;5.82;;
30000;SDS011;16845;48.670;9.000;2023-06-22T07:08:22;10.20;;;5.53;;
30000;SDS011;16845;48.670;9.000;2023-06-22T07:10:49;9.13;;;6.20;;
30000;SDS011;16845;48.670;9.000;2023-06-22T07:13:15;13.93;;;5.60;;
30000;SDS011;16845;48.670;9.000;2023-06-22T07:15:42;8.70;;;5.47;;
30000;SDS011;16845;48.670;9.000;2023-06-22T07:18:08;10.93;;;7.03;;
30000;SDS011;16845;48.670;9.000;2023-06-22T07:20:35;10.85;;;6.30;;
30000;SDS011;16845;48.670;9.000;2023-06-22T07:23:03;10.57;;;5.30;;
30000;SDS011;16845;48.670;9.000;2023-06-22T07:25:29;9.30;;;5.65;;
30000;SDS011;16845;48.670;9.000;2023-06-22T07:27:57;11.97;;;5.93;;
30000;SDS011;16845;48.670;9.000;2023-06-22T07:30:24;10.57;;;5.60;;
30000;SDS011;16845;48.670;9.000;2023-06-22T07:32:51;8.52;;;5.00;;
30000;SDS011;16845;48.670;9.000;2023-06-22T07:35:17;11.13;;;5.88;;
30000;SDS011;16845;48.670;9.000;2023-06-22T07:37:44;11.77;;;5.65;;
30000;SDS011;16845;48.670;9.000;2023-06-22T07:40:12;9.00;;;5.22;;
30000;SDS011;16845;48.670;9.000;2023-06-22T07:42:39;10.73;;;5.78;;
30000;SDS011;16845;48.670;9.000;2023-06-22T07:45:06;11.68;;;6.10;;
30000;SDS011;16845;48.670;9.000;2023-06-22T07:47:33;12.60;;;5.25;;
30000;SDS011;16845;48.670;9.000;2023-06-22T07:50:00;9.85;;;5.80;;
30000;SDS011;16845;48.670;9.000;2023-06-22T07:52:28;15.32;;;6.78;;
30000;SDS011;16845;48.670;9.000;2023-06-22T07:54:55;10.35;;;5.68;;
30000;SDS011;16845;48.670;9.000;2023-06-22T07:57:23;13.25;;;5.53;;
30000;SDS011;16845;48.670;9.000;2023-06-22T07:59:49;13.00;;;5.90;;
30000;SDS011;16845;48.670;9.000;2023-06-22T08:02:16;18.23;;;6.13;;
30000;SDS011;16845;48.670;9.000;2023-06-22T08:04:42;22.00;;;6.40;;
30000;SDS011;16845;48.670;9.000;2023-06-22T08:07:09;11.68;;;5.50;;
30000;SDS011;16845;48.670;9.000;2023-06-22T08:09:35;7.65;;;4.95;;
30000;SDS011;16845;48.670;9.000;2023-06-22T08:12:02;10.30;;;5.57;;
30000;SDS011;16845;48.670;9.000;2023-06-22T08:16:57;13.37;;;5.30;;
30000;SDS011;16845;48.670;9.000;2023-06-22T08:19:23;8.23;;;5.15;;
30000;SDS011;16845;48.670;9.000;2023-06-22T08:21:50;10.32;;;6.22;;
30000;SDS011;16845;48.670;9.000;2023-06-22T08:24:16;18.40;;;5.60;;
30000;SDS011;16845;48.670;9.000;2023-06-22T08:26:43;12.88;;;5.90;;
30000;SDS011;16845;48.670;9.000;2023-06-22T08:29:09;13.20;;;5.65;;
30000;SDS011;16845;48.670;9.000;2023-06-22T08:31:37;9.52;;;5.15;;
30000;SDS011;16845;48.670;9.000;2023-06-22T08:34:03;10.80;;;5.63;;
30000;SDS011;16845;48.670;9.000;2023-06-22T08:36:30;10.57;;;5.93;;
30000;SDS011;16845;48.670;9.000;2023-06-22T08:38:57;11.20;;;5.50;;
30000;SDS011;16845;48.670;9.000;2023-06-22T08:41:23;13.27;;;6.35;;
30000;SDS011;16845;48.670;9.000;2023-06-22T08:43:49;13.27;;;5.93;;
30000;SDS011;16845;48.670;9.000;2023-06-22T08:46:16;18.92;;;6.03;;
30000;SDS011;16845;48.670;9.000;2023-06-22T08:48:44;8.40;;;4.38;;
30000;SDS011;16845;48.670;9.000;2023-06-22T08:51:10;8.10;;;5.85;;
30000;SDS011;16845;48.670;9.000;2023-06-22T08:53:37;11.88;;;6.03;;
30000;SDS011;16845;48.670;9.000;2023-06-22T08:56:03;12.63;;;5.87;;
30000;SDS011;16845;48.670;9.000;2023-06-22T08:58:30;7.03;;;5.03;;
30000;SDS011;16845;48.670;9.000;2023-06-22T09:00:57;15.48;;;6.47;;
30000;SDS011;16845;48.670;9.000;2023-06-22T09:03:23;7.63;;;4.50;;
30000;SDS011;16845;48.670;9.000;2023-06-22T09:05:51;14.20;;;6.07;;
30000;SDS011;16845;48.670;9.000;2023-06-22T09:08:18;16.05;;;6.53;;
30000;SDS011;16845;48.670;9.000;2023-06-22T09:10:44;9.25;;;3.88;;
30000;SDS011;16845;48.670;9.000;2023-06-22T09:13:11;12.45;;;5.95;;
30000;SDS011;16845;48.670;9.000;2023-06-22T09:15:37;9.68;;;5.40;;
30000;SDS011;16845;48.670;9.000;2023-06-22T09:18:04;18.02;;;7.00;;
30000;SDS011;16845;48.670;9.000;2023-06-22T09:20:30;19.88;;;6.93;;
30000;SDS011;16845;48.670;9.000;2023-06-22T09:25:25;8.52;;;5.35;;
30000;SDS011;16845;48.670;9.000;2023-06-22T09:27:52;11.68;;;5.90;;
30000;SDS011;16845;48.670;9.000;2023-06-22T09:30:19;16.70;;;6.15;;
30000;SDS011;16845;48.670;9.000;2023-06-22T09:35:12;12.32;;;5.47;;
30000;SDS011;16845;48.670;9.000;2023-06-22T09:37:41;15.02;;;6.55;;
30000;SDS011;16845;48.670;9.000;2023-06-22T09:40:10;16.75;;;6.93;;
30000;SDS011;16845;48.670;9.000;2023-06-22T09:42:36;12.73;;;6.50;;
30000;SDS011;16845;48.670;9.000;2023-06-22T09:45:03;18.80;;;6.72;;
30000;SDS011;16845;48.670;9.000;2023-06-22T09:47:30;12.98;;;5.45;;
30000;SDS011;16845;48.670;9.000;2023-06-22T09:49:57;15.80;;;6.18;;
30000;SDS011;16845;48.670;9.000;2023-06-22T09:52:23;14.38;;;5.57;;
30000;SDS011;16845;48.670;9.000;2023-06-22T09:54:59;11.23;;;5.55;;
30000;SDS011;16845;48.670;9.000;2023-06-22T09:57:27;14.05;;;5.18;;
30000;SDS011;16845;48.670;9.000;2023-06-22T09:59:53;9.90;;;4.88;;
30000;SDS011;16845;48.670;9.000;2023-06-22T10:02:20;12.45;;;6.03;;
30000;SDS011;16845;48.670;9.000;2023-06-22T10:04:47;9.52;;;5.82;;
30000;SDS011;16845;48.670;9.000;2023-06-22T10:07:14;9.65;;;5.75;;
30000;SDS011;16845;48.670;9.000;2023-06-22T10:09:40;13.27;;;5.93;;
30000;SDS011;16845;48.670;9.000;2023-06-22T10:12:07;10.40;;;5.43;;
30000;SDS011;16845;48.670;9.000;2023-06-22T10:14:35;11.48;;;6.50;;
30000;SDS011;16845;48.670;9.000;2023-06-22T10:17:02;14.30;;;6.07;;
30000;SDS011;16845;48.670;9.000;2023-06-22T10:19:28;16.10;;;6.05;;
30000;SDS011;16845;48.670;9.000;2023-06-22T10:21:55;13.05;;;5.90;;
30000;SDS011;16845;48.670;9.000;2023-06-22T10:24:21;22.33;;;6.97;;
30000;SDS011;16845;48.670;9.000;2023-06-22T10:26:48;11.48;;;5.50;;
30000;SDS011;16845;48.670;9.000;2023-06-22T10:29:14;16.02;;;5.88;;
30000;SDS011;16845;48.670;9.000;2023-06-22T10:31:44;15.25;;;5.75;;
30000;SDS011;16845;48.670;9.000;2023-06-22T10:34:10;12.50;;;6.00;;
30000;SDS011;16845;48.670;9.000;2023-06-22T10:36:38;12.23;;;5.97;;
30000;SDS011;16845;48.670;9.000;2023-06-22T10:39:04;12.23;;;5.68;;
30000;SDS011;16845;48.670;9.000;2023-06-22T10:41:31;15.02;;;6.38;;
30000;SDS011;16845;48.670;9.000;2023-06-22T10:43:58;8.63;;;4.43;;
30000;SDS011;16845;48.670;9.000;2023-06-22T10:46:24;14.40;;;5.55;;
30000;SDS011;16845;48.670;9.000;2023-06-22T10:51:19;9.80;;;5.13;;
30000;SDS011;16845;48.670;9.000;2023-06-22T10:53:45;13.43;;;5.38;;
30000;SDS011;16845;48.670;9.000;2023-06-22T10:56:12;18.48;;;6.20;;
30000;SDS011;16845;48.670;9.000;2023-06-22T10:58:38;10.13;;;5.60;;
30000;SDS011;16845;48.670;9.000;2023-06-22T11:01:05;10.57;;;6.18;;
30000;SDS011;16845;48.670;9.000;2023-06-22T11:03:31;13.05;;;5.60;;
30000;SDS011;16845;48.670;9.000;2023-06-22T11:05:59;16.73;;;6.90;;
30000;SDS011;16845;48.670;9.000;2023-06-22T11:08:25;10.55;;;5.28;;
30000;SDS011;16845;48.670;9.000;2023-06-22T11:10:52;14.10;;;6.15;;
30000;SDS011;16845;48.670;9.000;2023-06-22T11:13:19;14.90;;;6.47;;
30000;SDS011;16845;48.670;9.000;2023-06-22T11:15:45;16.92;;;6.35;;
30000;SDS011;16845;48.670;9.000;2023-06-22T11:18:12;20.48;;;6.07;;
30000;SDS011;16845;48.670;9.000;2023-06-22T11:20:38;16.02;;;5.28;;
30000;SDS011;16845;48.670;9.000;2023-06-22T11:23:06;14.88;;;6.30;;
30000;SDS011;16845;48.670;9.000;2023-06-22T11:25:33;12.82;;;5.95;;
30000;SDS011;16845;48.670;9.000;2023-06-22T11:28:01;9.98;;;5.57;;
30000;SDS011;16845;48.670;9.000;2023-06-22T11:30:28;16.60;;;6.38;;
30000;SDS011;16845;48.670;9.000;2023-06-22T11:32:56;18.02;;;6.25;;
30000;SDS011;16845;48.670;9.000;2023-06-22T11:35:22;12.23;;;5.72;;
30000;SDS011;16845;48.670;9.000;2023-06-22T11:37:49;9.80;;;6.40;;
30000;SDS011;16845;48.670;9.000;2023-06-22T11:40:17;11.90;;;5.82;;
30000;SDS011;16845;48.670;9.000;2023-06-22T11:42:43;13.35;;;6.50;;
30000;SDS011;16845;48.670;9.000;2023-06-22T11:45:10;13.05;;;6.05;;
30000;SDS011;16845;48.670;9.000;2023-06-22T11:47:37;12.63;;;5.45;;
30000;SDS011;16845;48.670;9.000;2023-06-22T11:50:04;14.13;;;6.07;;
30000;SDS011;16845;48.670;9.000;2023-06-22T11:52:33;18.33;;;7.22;;
30000;SDS011;16845;48.670;9.000;2023-06-22T11:54:59;11.77;;;5.55;;
30000;SDS011;16845;48.670;9.000;2023-06-22T11:57:27;17.42;;;7.03;;
30000;SDS011;16845;48.670;9.000;2023-06-22T11:59:53;10.63;;;6.13;;
30000;SDS011;16845;48.670;9.000;2023-06-22T12:02:20;17.02;;;6.85;;
30000;SDS011;16845;48.670;9.000;2023-06-22T12:04:47;14.75;;;6.40;;
30000;SDS011;16845;48.670;9.000;2023-06-22T12:07:13;12.63;;;7.07;;
30000;SDS011;16845;48.670;9.000;2023-06-22T12:09:40;15.60;;;7.22;;
30000;SDS011;16845;48.670;9.000;2023-06-22T12:12:06;13.95;;;7.68;;
30000;SDS011;16845;48.670;9.000;2023-06-22T12:14:35;13.00;;;7.28;;
30000;SDS011;16845;48.670;9.000;2023-06-22T12:17:02;18.15;;;6.85;;
30000;SDS011;16845;48.670;9.000;2023-06-22T12:19:28;13.30;;;7.47;;
30000;SDS011;16845;48.670;9.000;2023-06-22T12:21:55;17.02;;;6.32;;
30000;SDS011;16845;48.670;9.000;2023-06-22T12:24:21;15.45;;;7.38;;
30000;SDS011;16845;48.670;9.000;2023-06-22T12:26:48;16.73;;;7.03;;
30000;SDS011;16845;48.670;9.000;2023-06-22T12:29:15;17.55;;;6.68;;
30000;SDS011;16845;48.670;9.000;2023-06-22T12:31:43;13.05;;;7.05;;
30000;SDS011;16845;48.670;9.000;2023-06-22T12:34:09;17.83;;;7.15;;
30000;SDS011;16845;48.670;9.000;2023-06-22T12:36:36;10.15;;;6.43;;
30000;SDS011;16845;48.670;9.000;2023-06-22T12:39:02;13.65;;;6.78;;
30000;SDS011;16845;48.670;9.000;2023-06-22T12:41:29;13.23;;;7.20;;
30000;SDS011;16845;48.670;9.000;2023-06-22T12:43:55;9.90;;;6.40;;
30000;SDS011;16845;48.670;9.000;2023-06-22T12:46:22;13.73;;;7.68;;
30000;SDS011;16845;48.670;9.000;2023-06-22T12:48:50;12.88;;;6.72;;
30000;SDS011;16845;48.670;9.000;2023-06-22T12:51:20;13.75;;;7.35;;
30000;SDS011;16845;48.670;9.000;2023-06-22T12:53:47;13.75;;;6.82;;
30000;SDS011;16845;48.670;9.000;2023-06-22T12:56:13;17.02;;;8.18;;
30000;SDS011;16845;48.670;9.000;2023-06-22T12:58:40;14.23;;;7.00;;
30000;SDS011;16845;48.670;9.000;2023-06-22T13:01:06;16.13;;;7.45;;
30000;SDS011;16845;48.670;9.000;2023-06-22T13:03:33;18.77;;;7.57;;
30000;SDS011;16845;48.670;9.000;2023-06-22T13:06:01;14.55;;;7.03;;
30000;SDS011;16845;48.670;9.000;2023-06-22T13:08:27;15.63;;;6.45;;
30000;SDS011;16845;48.670;9.000;2023-06-22T13:11:14;13.50;;;6.80;;
30000;SDS011;16845;48.670;9.000;2023-06-22T13:13:40;11.90;;;6.63;;
30000;SDS011;16845;48.670;9.000;2023-06-22T13:16:07;15.25;;;6.00;;
30000;SDS011;16845;48.670;9.000;2023-06-22T13:18:34;14.35;;;6.28;;
30000;SDS011;16845;48.670;9.000;2023-06-22T13:21:01;12.45;;;6.22;;
30000;SDS011;16845;48.670;9.000;2023-06-22T13:23:28;17.02;;;6.68;;
30000;SDS011;16845;48.670;9.000;2023-06-22T13:25:55;14.73;;;6.43;;
30000;SDS011;16845;48.670;9.000;2023-06-22T13:28:21;8.98;;;5.85;;
30000;SDS011;16845;48.670;9.000;2023-06-22T13:30:54;19.38;;;6.38;;
30000;SDS011;16845;48.670;9.000;2023-06-22T13:33:20;16.98;;;6.60;;
30000;SDS011;16845;48.670;9.000;2023-06-22T13:35:47;14.27;;;6.15;;
30000;SDS011;16845;48.670;9.000;2023-06-22T13:38:15;14.15;;;6.28;;
30000;SDS011;16845;48.670;9.000;2023-06-22T13:40:41;23.08;;;6.60;;
30000;SDS011;16845;48.670;9.000;2023-06-22T13:43:08;13.68;;;5.90;;
30000;SDS011;16845;48.670;9.000;2023-06-22T13:45:34;16.25;;;6.60;;
30000;SDS011;16845;48.670;9.000;2023-06-22T13:48:01;19.50;;;7.80;;
30000;SDS011;16845;48.670;9.000;2023-06-22T13:50:28;13.00;;;6.15;;
30000;SDS011;16845;48.670;9.000;2023-06-22T13:52:55;12.52;;;6.20;;
30000;SDS011;16845;48.670;9.000;2023-06-22T13:55:22;12.50;;;6.25;;
30000;SDS011;16845;48.670;9.000;2023-06-22T13:57:49;15.02;;;6.85;;
30000;SDS011;16845;48.670;9.000;2023-06-22T14:00:16;13.65;;;6.20;;
30000;SDS011;16845;48.670;9.000;2023-06-22T14:02:43;14.10;;;6.22;;
30000;SDS011;16845;48.670;9.000;2023-06-22T14:05:10;13.45;;;6.47;;
30000;SDS011;16845;48.670;9.000;2023-06-22T14:07:36;15.15;;;6.97;;
30000;SDS011;16845;48.670;9.000;2023-06-22T14:10:03;15.75;;;6.10;;
30000;SDS011;16845;48.670;9.000;2023-06-22T14:12:31;13.38;;;5.43;;
30000;SDS011;16845;48.670;9.000;2023-06-22T14:14:58;14.02;;;5.38;;
30000;SDS011;16845;48.670;9.000;2023-06-22T14:17:24;16.55;;;5.00;;
30000;SDS011;16845;48.670;9.000;2023-06-22T14:19:51;15.20;;;5.75;;
30000;SDS011;16845;48.670;9.000;2023-06-22T14:22:18;18.38;;;5.88;;
30000;SDS011;16845;48.670;9.000;2023-06-22T14:24:45;15.52;;;5.13;;
30000;SDS011;16845;48.670;9.000;2023-06-22T14:27:11;13.95;;;4.88;;
30000;SDS011;16845;48.670;9.000;2023-06-22T14:29:39;11.55;;;3.95;;
30000;SDS011;16845;48.670;9.000;2023-06-22T14:32:06;16.77;;;3.80;;
30000;SDS011;16845;48.670;9.000;2023-06-22T14:34:33;17.13;;;4.13;;
30000;SDS011;16845;48.670;9.000;2023-06-22T14:37:00;16.52;;;4.45;;
30000;SDS011;16845;48.670;9.000;2023-06-22T14:39:26;15.63;;;4.38;;
30000;SDS011;16845;48.670;9.000;2023-06-22T14:41:53;20.08;;;4.32;;
30000;SDS011;16845;48.670;9.000;2023-06-22T14:44:19;17.45;;;5.00;;
30000;SDS011;16845;48.670;9.000;2023-06-22T14:46:47;11.77;;;3.88;;
30000;SDS011;16845;48.670;9.000;2023-06-22T14:49:14;12.32;;;4.07;;
30000;SDS011;16845;48.670;9.000;2023-06-22T14:51:40;15.00;;;3.90;;